Terminal Aerodrome Forecast
Issued by NWS

Home | Current Version | Previous Version | Text Only | Print | Product List | Glossary On
Versions: 1 2 3 4 5 6 7 8 9 10 11 12 13 14 15 16 17
000
FTUS46 KPDT 252300
TAFALW
TAF
KALW 252320Z 2600/2624 08006KT 5SM BR BKN120
     FM260100 22020G30KT P6SM OVC080
     FM260300 22020G30KT P6SM -SHRA BKN050 OVC070
     FM260700 22022G32KT P6SM -SHRA OVC040
     FM261300 20015G25KT P6SM VCSH BKN040=

USA.gov is the U.S. government's official web portal to all federal, state and local government web resources and services.